Time;durP1;ratioP1;P1;durP2;ratioP2;P2;SDS_P1;SDS_P2;PMS_P1;PMS_P2;Temp;Humidity;BMP_temperature;BMP_pressure;BME280_temperature;BME280_humidity;BME280_pressure;Samples;Min_cycle;Max_cycle;Signal;HPM_P1;HPM_P2
2023/04/30 00:01:26;;;;;;;27.90;17.20;;;11.00;99.90;;;;;;5070681;28;20076;-62
2023/04/30 00:03:53;;;;;;;26.67;15.63;;;11.00;99.90;;;;;;5064013;28;20064;-62
2023/04/30 00:06:20;;;;;;;27.88;15.48;;;11.00;99.90;;;;;;5059677;28;20044;-62
2023/04/30 00:08:46;;;;;;;26.90;17.05;;;10.90;99.90;;;;;;5065162;28;20048;-63
2023/04/30 00:11:13;;;;;;;28.48;16.88;;;10.90;99.90;;;;;;5067719;28;20044;-63
2023/04/30 00:13:41;;;;;;;30.20;17.55;;;10.80;99.90;;;;;;5071313;28;20063;-62
2023/04/30 00:16:08;;;;;;;28.85;16.52;;;10.90;99.90;;;;;;5052725;28;20041;-62
2023/04/30 00:18:35;;;;;;;29.30;18.08;;;10.90;99.90;;;;;;5072918;28;20131;-63
2023/04/30 00:21:02;;;;;;;24.80;16.88;;;10.80;99.90;;;;;;5075769;28;20051;-63
2023/04/30 00:23:29;;;;;;;26.58;16.90;;;10.80;99.90;;;;;;5076198;28;20549;-62
2023/04/30 00:25:56;;;;;;;30.80;16.30;;;10.80;99.90;;;;;;5075092;28;20083;-63
2023/04/30 00:28:23;;;;;;;28.50;16.63;;;10.70;99.90;;;;;;5075213;28;20560;-64
2023/04/30 00:30:50;;;;;;;22.27;16.02;;;10.70;99.90;;;;;;5075930;28;20091;-63
2023/04/30 00:33:16;;;;;;;24.60;16.17;;;10.60;99.90;;;;;;5073505;28;20135;-64
2023/04/30 00:35:43;;;;;;;23.25;15.02;;;10.60;99.90;;;;;;5059317;28;20136;-64
2023/04/30 00:38:10;;;;;;;27.30;17.65;;;10.60;99.90;;;;;;5071373;28;20068;-63
2023/04/30 00:40:37;;;;;;;26.55;17.48;;;10.60;99.90;;;;;;5059727;28;20044;-63
2023/04/30 00:43:04;;;;;;;27.92;18.50;;;10.60;99.90;;;;;;5047187;28;20060;-63
2023/04/30 00:45:30;;;;;;;31.83;19.88;;;10.60;99.90;;;;;;5067406;28;20146;-64
2023/04/30 00:47:57;;;;;;;28.83;17.83;;;10.60;99.90;;;;;;5072373;28;20049;-63
2023/04/30 00:50:24;;;;;;;24.95;16.23;;;10.50;99.90;;;;;;5064174;28;20075;-63
2023/04/30 00:52:51;;;;;;;25.88;16.52;;;10.40;99.90;;;;;;5061399;28;20136;-63
2023/04/30 00:55:18;;;;;;;24.75;17.63;;;10.30;99.90;;;;;;5052233;28;20051;-63
2023/04/30 00:57:45;;;;;;;22.92;15.43;;;10.30;99.90;;;;;;5064401;28;20348;-63
2023/04/30 01:00:12;;;;;;;29.00;18.08;;;10.30;99.90;;;;;;5062857;28;20045;-63
2023/04/30 01:02:40;;;;;;;30.58;18.38;;;10.30;99.90;;;;;;5059341;28;20069;-62
2023/04/30 01:05:07;;;;;;;32.72;19.15;;;10.30;99.90;;;;;;4716709;28;10000112;-61
2023/04/30 01:07:34;;;;;;;39.10;20.02;;;10.30;99.90;;;;;;5069306;28;20145;-63
2023/04/30 01:10:01;;;;;;;33.28;19.50;;;10.30;99.90;;;;;;5068940;28;20054;-63
2023/04/30 01:12:40;;;;;;;30.48;18.15;;;10.30;99.90;;;;;;5067894;28;20477;-63
2023/04/30 01:15:24;;;;;;;34.17;19.20;;;10.20;99.90;;;;;;5042030;28;20132;-62
2023/04/30 01:17:57;;;;;;;32.85;18.92;;;10.20;99.90;;;;;;5054169;28;20048;-62
2023/04/30 01:20:23;;;;;;;30.15;18.38;;;10.10;99.90;;;;;;5055701;28;20547;-63
2023/04/30 01:22:56;;;;;;;31.65;19.13;;;10.10;99.90;;;;;;5041938;28;20059;-63
2023/04/30 01:25:42;;;;;;;31.25;18.77;;;10.10;99.90;;;;;;5048525;28;20070;-62
2023/04/30 01:28:12;;;;;;;28.08;17.92;;;10.10;99.90;;;;;;5053119;28;20071;-62
2023/04/30 01:30:39;;;;;;;28.48;18.55;;;10.00;99.90;;;;;;5058239;28;20075;-63
2023/04/30 01:33:06;;;;;;;29.67;20.42;;;10.00;99.90;;;;;;5069544;28;20088;-64
2023/04/30 01:35:37;;;;;;;32.28;19.20;;;10.00;99.90;;;;;;5066616;28;20056;-63
2023/04/30 01:38:27;;;;;;;29.65;19.83;;;10.00;99.90;;;;;;5041326;28;20068;-64
2023/04/30 01:40:59;;;;;;;42.25;22.42;;;9.90;99.90;;;;;;5064675;28;20689;-63
2023/04/30 01:43:56;;;;;;;34.47;21.70;;;9.90;99.90;;;;;;5054460;28;20144;-63
2023/04/30 01:46:28;;;;;;;30.35;20.30;;;9.80;99.90;;;;;;5063724;28;20060;-63
2023/04/30 01:49:09;;;;;;;27.45;19.20;;;9.80;99.90;;;;;;5072860;28;20048;-63
2023/04/30 01:51:46;;;;;;;29.90;20.25;;;9.80;99.90;;;;;;5069545;28;20097;-64
2023/04/30 01:54:35;;;;;;;29.52;20.33;;;9.80;99.90;;;;;;5047441;28;20048;-63
2023/04/30 01:57:15;;;;;;;31.48;19.55;;;9.80;99.90;;;;;;5058115;28;20049;-64
2023/04/30 01:59:42;;;;;;;32.13;20.35;;;9.70;99.90;;;;;;5067901;28;20048;-62
2023/04/30 02:02:08;;;;;;;31.92;19.67;;;9.60;99.90;;;;;;5052628;28;20045;-63
2023/04/30 02:04:35;;;;;;;34.22;21.08;;;9.60;99.90;;;;;;5067353;28;20203;-62
2023/04/30 02:07:02;;;;;;;28.65;19.88;;;9.60;99.90;;;;;;5059292;28;20550;-63
2023/04/30 02:09:29;;;;;;;31.60;22.15;;;9.50;99.90;;;;;;5067104;28;20053;-63
2023/04/30 02:11:56;;;;;;;35.97;20.80;;;9.50;99.90;;;;;;5069053;28;20044;-63
2023/04/30 02:14:23;;;;;;;36.58;21.55;;;9.40;99.90;;;;;;5069560;28;20053;-61
2023/04/30 02:16:50;;;;;;;38.65;22.40;;;9.40;99.90;;;;;;5068621;28;20260;-62
2023/04/30 02:19:17;;;;;;;31.67;21.63;;;9.40;99.90;;;;;;5067924;28;20052;-64
2023/04/30 02:21:44;;;;;;;29.75;21.00;;;9.40;99.90;;;;;;5068796;28;20048;-62
2023/04/30 02:24:10;;;;;;;37.45;21.00;;;9.40;99.90;;;;;;5064817;28;20053;-62
2023/04/30 02:26:37;;;;;;;31.50;22.20;;;9.40;99.90;;;;;;5061184;28;20048;-62
2023/04/30 02:29:04;;;;;;;33.15;21.75;;;9.40;99.90;;;;;;5057560;28;20395;-62
2023/04/30 02:31:32;;;;;;;38.17;21.38;;;9.40;99.90;;;;;;5060643;28;20112;-61
2023/04/30 02:33:59;;;;;;;34.67;22.85;;;9.40;99.90;;;;;;5039792;28;20040;-62
2023/04/30 02:36:26;;;;;;;46.13;24.02;;;9.50;99.90;;;;;;5056860;28;20129;-62
2023/04/30 02:38:52;;;;;;;43.28;23.63;;;9.40;99.90;;;;;;5064853;28;20059;-62
2023/04/30 02:41:19;;;;;;;37.42;23.52;;;9.40;99.90;;;;;;5058882;28;20037;-62
2023/04/30 02:43:46;;;;;;;32.47;23.08;;;9.40;99.90;;;;;;5060103;28;20044;-62
2023/04/30 02:46:12;;;;;;;32.30;22.88;;;9.40;99.90;;;;;;5069595;28;20479;-62
2023/04/30 02:48:39;;;;;;;35.55;22.50;;;9.40;99.90;;;;;;5069144;28;20052;-63
2023/04/30 02:51:06;;;;;;;37.60;21.83;;;9.40;99.90;;;;;;5068302;28;20045;-62
2023/04/30 02:53:33;;;;;;;37.58;23.77;;;9.30;99.90;;;;;;5063149;28;20459;-62
2023/04/30 02:56:00;;;;;;;31.65;21.02;;;9.30;99.90;;;;;;5058030;28;20044;-62
2023/04/30 02:58:27;;;;;;;35.70;23.58;;;9.20;99.90;;;;;;5065148;28;20084;-62
2023/04/30 03:00:53;;;;;;;33.25;23.65;;;9.20;99.90;;;;;;5051438;28;20091;-64
2023/04/30 03:03:20;;;;;;;39.58;22.42;;;9.20;99.90;;;;;;5064654;28;20401;-61
2023/04/30 03:05:47;;;;;;;38.85;22.70;;;9.20;99.90;;;;;;5063144;28;20049;-62
2023/04/30 03:08:15;;;;;;;32.95;20.92;;;9.10;99.90;;;;;;5055423;28;20102;-62
2023/04/30 03:10:42;;;;;;;35.38;21.63;;;9.10;99.90;;;;;;5056488;28;20163;-62
2023/04/30 03:13:08;;;;;;;39.97;23.35;;;9.20;99.90;;;;;;5061255;28;20112;-62
2023/04/30 03:15:35;;;;;;;34.85;21.58;;;9.20;99.90;;;;;;5057398;28;20074;-62
2023/04/30 03:18:02;;;;;;;32.85;22.05;;;9.20;99.90;;;;;;5064607;28;20119;-62
2023/04/30 03:20:29;;;;;;;38.13;23.02;;;9.20;99.90;;;;;;5056315;28;20069;-63
2023/04/30 03:22:56;;;;;;;42.28;21.88;;;9.20;99.90;;;;;;5058313;28;20058;-62
2023/04/30 03:25:22;;;;;;;29.27;21.00;;;9.20;99.90;;;;;;5056754;28;20059;-63
2023/04/30 03:27:49;;;;;;;37.55;21.60;;;9.20;99.90;;;;;;5057071;28;20407;-62
2023/04/30 03:30:16;;;;;;;40.08;23.58;;;9.20;99.90;;;;;;5059497;28;20037;-63
2023/04/30 03:32:43;;;;;;;38.15;23.15;;;9.20;99.90;;;;;;5058380;28;20079;-63
2023/04/30 03:35:10;;;;;;;36.65;22.85;;;9.20;99.90;;;;;;5065066;28;20143;-63
2023/04/30 03:37:36;;;;;;;37.95;22.65;;;9.20;99.90;;;;;;5071816;28;20135;-62
2023/04/30 03:40:04;;;;;;;34.47;22.48;;;9.20;99.90;;;;;;5070486;28;20144;-62
2023/04/30 03:42:30;;;;;;;30.80;21.63;;;9.10;99.90;;;;;;5071843;28;20083;-63
2023/04/30 03:44:57;;;;;;;41.15;22.48;;;9.00;99.90;;;;;;5071791;28;20047;-62
2023/04/30 03:47:24;;;;;;;32.33;21.98;;;8.90;99.90;;;;;;5069619;28;20112;-63
2023/04/30 03:49:53;;;;;;;37.25;22.45;;;8.90;99.90;;;;;;5072535;28;20298;-62
2023/04/30 03:52:21;;;;;;;34.70;20.63;;;8.80;99.90;;;;;;5073929;28;20294;-62
2023/04/30 03:54:48;;;;;;;36.83;21.63;;;8.80;99.90;;;;;;5074268;28;20380;-62
2023/04/30 03:57:15;;;;;;;39.38;22.67;;;8.80;99.90;;;;;;5071082;28;20488;-62
2023/04/30 03:59:41;;;;;;;36.00;22.33;;;8.70;99.90;;;;;;5072257;28;20057;-61
2023/04/30 04:02:08;;;;;;;38.50;22.58;;;8.80;99.90;;;;;;5071766;28;20068;-63
2023/04/30 04:04:35;;;;;;;41.08;22.92;;;8.70;99.90;;;;;;5065492;28;20052;-62
2023/04/30 04:07:02;;;;;;;32.92;21.92;;;8.70;99.90;;;;;;5068066;28;20484;-62
2023/04/30 04:09:29;;;;;;;35.85;22.67;;;8.80;99.90;;;;;;5072647;28;20813;-63
2023/04/30 04:11:56;;;;;;;34.10;21.98;;;8.80;99.90;;;;;;5072419;28;20122;-62
2023/04/30 04:14:23;;;;;;;40.72;20.90;;;8.80;99.90;;;;;;5073245;28;20045;-63
2023/04/30 04:16:50;;;;;;;31.38;20.90;;;8.80;99.90;;;;;;5071591;28;20066;-65
2023/04/30 04:19:17;;;;;;;38.03;21.92;;;8.80;99.90;;;;;;5058725;28;20053;-63
2023/04/30 04:21:43;;;;;;;37.38;22.85;;;8.80;99.90;;;;;;5070050;28;20619;-63
2023/04/30 04:24:11;;;;;;;40.55;22.95;;;8.80;99.90;;;;;;5059538;28;20131;-63
2023/04/30 04:26:38;;;;;;;37.13;21.25;;;8.80;99.90;;;;;;5067643;28;20048;-63
2023/04/30 04:29:05;;;;;;;39.30;23.25;;;8.80;99.90;;;;;;5068210;28;20143;-62
2023/04/30 04:31:31;;;;;;;39.58;23.65;;;8.80;99.90;;;;;;5054588;28;20076;-62
2023/04/30 04:33:59;;;;;;;32.60;23.27;;;8.80;99.90;;;;;;5068277;28;20044;-63
2023/04/30 04:36:26;;;;;;;32.72;21.02;;;8.80;99.90;;;;;;5056323;28;20381;-62
2023/04/30 04:38:54;;;;;;;30.35;20.65;;;8.80;99.90;;;;;;5070361;28;20102;-62
2023/04/30 04:41:22;;;;;;;40.58;23.08;;;8.80;99.90;;;;;;5072246;28;20396;-62
2023/04/30 04:43:49;;;;;;;35.55;21.48;;;8.70;99.90;;;;;;5072627;28;20131;-63
2023/04/30 04:46:16;;;;;;;35.22;21.23;;;8.70;99.90;;;;;;5072247;28;20064;-62
2023/04/30 04:48:43;;;;;;;34.58;22.95;;;8.70;99.90;;;;;;5071589;28;20064;-62
2023/04/30 04:51:09;;;;;;;40.28;23.15;;;8.70;99.90;;;;;;5072229;28;20047;-63
2023/04/30 04:53:36;;;;;;;34.05;22.30;;;8.70;99.90;;;;;;5070487;28;20079;-62
2023/04/30 04:56:04;;;;;;;39.35;22.38;;;8.70;99.90;;;;;;5066631;28;20049;-62
2023/04/30 04:58:30;;;;;;;40.45;23.48;;;8.70;99.90;;;;;;5072010;28;20104;-62
2023/04/30 05:00:58;;;;;;;38.10;21.92;;;8.60;99.90;;;;;;5072281;28;20123;-62
2023/04/30 05:03:29;;;;;;;38.42;24.52;;;8.60;99.90;;;;;;5072222;28;20432;-62
2023/04/30 05:05:56;;;;;;;37.75;23.92;;;8.70;99.90;;;;;;5075126;28;20044;-62
2023/04/30 05:08:22;;;;;;;34.30;22.90;;;8.70;99.90;;;;;;5075007;28;20404;-62
2023/04/30 05:10:50;;;;;;;36.08;23.35;;;8.70;99.90;;;;;;5060800;28;20068;-62
2023/04/30 05:13:16;;;;;;;38.30;22.90;;;8.70;99.90;;;;;;5069099;28;20060;-63
2023/04/30 05:15:43;;;;;;;38.85;24.00;;;8.70;99.90;;;;;;5059699;28;20059;-62
2023/04/30 05:18:10;;;;;;;38.08;22.85;;;8.80;99.90;;;;;;5073288;28;20128;-62
2023/04/30 05:20:37;;;;;;;37.28;24.40;;;8.90;99.90;;;;;;5071315;28;20053;-62
2023/04/30 05:23:03;;;;;;;38.80;22.98;;;8.90;99.90;;;;;;5058942;28;20045;-62
2023/04/30 05:25:30;;;;;;;36.45;22.98;;;8.90;99.90;;;;;;5073089;28;20135;-63
2023/04/30 05:27:57;;;;;;;37.85;22.50;;;8.90;99.90;;;;;;5075420;28;20109;-62
2023/04/30 05:30:24;;;;;;;37.60;22.15;;;8.90;99.90;;;;;;5075383;28;20048;-62
2023/04/30 05:32:51;;;;;;;37.38;21.13;;;9.00;99.90;;;;;;5075188;28;20053;-62
2023/04/30 05:35:18;;;;;;;35.72;20.88;;;9.00;99.90;;;;;;5073815;28;20555;-63
2023/04/30 05:37:45;;;;;;;33.40;20.85;;;9.00;99.90;;;;;;5074665;28;20076;-62
2023/04/30 05:40:12;;;;;;;32.22;20.33;;;9.00;99.90;;;;;;5073231;28;20049;-63
2023/04/30 05:42:42;;;;;;;32.72;18.58;;;8.90;99.90;;;;;;5062759;28;20487;-63
2023/04/30 05:45:11;;;;;;;34.35;19.67;;;8.90;99.90;;;;;;5067670;28;20045;-62
2023/04/30 05:47:37;;;;;;;29.92;18.88;;;9.00;99.90;;;;;;5064575;28;20056;-62
2023/04/30 05:50:05;;;;;;;30.90;19.42;;;9.00;99.90;;;;;;4716117;28;10000472;-62
2023/04/30 05:52:32;;;;;;;32.53;19.73;;;9.10;99.90;;;;;;5074894;28;20049;-62
2023/04/30 05:54:59;;;;;;;32.65;18.73;;;9.20;99.90;;;;;;5075349;28;20132;-62
2023/04/30 05:57:25;;;;;;;28.63;19.05;;;9.20;99.90;;;;;;5077527;28;20044;-62
2023/04/30 05:59:53;;;;;;;31.20;19.92;;;9.40;99.90;;;;;;5077434;28;20044;-62
2023/04/30 06:02:20;;;;;;;31.35;19.98;;;9.40;99.90;;;;;;5073283;28;20064;-62
2023/04/30 06:04:47;;;;;;;28.58;18.33;;;9.50;99.90;;;;;;5074144;28;20055;-62
2023/04/30 06:07:14;;;;;;;32.35;19.80;;;9.50;99.90;;;;;;5056078;28;20052;-61
2023/04/30 06:09:41;;;;;;;29.98;18.15;;;9.60;99.90;;;;;;5074454;28;20049;-61
2023/04/30 06:12:07;;;;;;;28.70;18.33;;;9.70;99.90;;;;;;5056142;28;20108;-61
2023/04/30 06:14:34;;;;;;;31.42;18.23;;;9.80;99.90;;;;;;5072057;28;20048;-61
2023/04/30 06:17:02;;;;;;;24.95;15.73;;;9.90;99.90;;;;;;5067167;28;20119;-62
2023/04/30 06:19:28;;;;;;;24.60;16.17;;;10.00;99.90;;;;;;5058790;28;20095;-62
2023/04/30 06:21:55;;;;;;;24.00;16.77;;;10.00;99.90;;;;;;5066703;28;20488;-62
2023/04/30 06:24:22;;;;;;;30.27;18.13;;;10.20;99.90;;;;;;5063496;28;20059;-62
2023/04/30 06:26:49;;;;;;;29.13;16.55;;;10.20;99.90;;;;;;5073824;28;20055;-62
2023/04/30 06:29:15;;;;;;;26.40;16.00;;;10.30;99.90;;;;;;5057838;28;20496;-62
2023/04/30 06:31:42;;;;;;;28.75;16.88;;;10.40;99.90;;;;;;5065588;28;20124;-62
2023/04/30 06:34:09;;;;;;;23.48;16.92;;;10.50;99.90;;;;;;5071578;28;20491;-62
2023/04/30 06:36:36;;;;;;;23.20;16.45;;;10.60;99.90;;;;;;5068873;28;20048;-61
2023/04/30 06:39:04;;;;;;;26.83;17.30;;;10.60;99.90;;;;;;5063985;28;20444;-62
2023/04/30 06:41:30;;;;;;;32.78;17.38;;;10.70;99.90;;;;;;5062095;28;20076;-62
2023/04/30 06:43:57;;;;;;;24.65;16.20;;;10.80;99.90;;;;;;5071419;28;20086;-62
2023/04/30 06:46:24;;;;;;;25.48;17.20;;;10.90;99.90;;;;;;5072572;28;20123;-63
2023/04/30 06:48:51;;;;;;;27.25;17.85;;;10.90;99.90;;;;;;5072192;28;20048;-62
2023/04/30 06:51:17;;;;;;;33.88;18.83;;;11.00;99.90;;;;;;5072120;28;20218;-62
2023/04/30 06:53:44;;;;;;;30.67;17.85;;;11.10;99.90;;;;;;5073931;28;20053;-62
2023/04/30 06:56:12;;;;;;;27.65;17.38;;;11.20;99.90;;;;;;5073256;28;20332;-62
2023/04/30 06:58:38;;;;;;;28.80;19.33;;;11.20;99.90;;;;;;5072155;28;20054;-62
2023/04/30 07:01:05;;;;;;;28.55;19.42;;;11.30;99.90;;;;;;5072234;28;20109;-62
2023/04/30 07:03:33;;;;;;;25.90;18.13;;;11.40;99.90;;;;;;5070686;28;20052;-62
2023/04/30 07:06:00;;;;;;;30.42;18.50;;;11.50;99.90;;;;;;5068953;28;20056;-62
2023/04/30 07:08:27;;;;;;;33.10;20.42;;;11.50;99.90;;;;;;5057541;28;20052;-61
2023/04/30 07:10:54;;;;;;;30.73;20.15;;;11.60;99.90;;;;;;5066431;28;20048;-62
2023/04/30 07:13:21;;;;;;;30.35;20.38;;;11.70;99.90;;;;;;5071729;28;20127;-63
2023/04/30 07:15:48;;;;;;;33.55;20.27;;;11.80;99.90;;;;;;5062296;28;20048;-63
2023/04/30 07:18:15;;;;;;;37.53;21.90;;;11.70;99.90;;;;;;5070531;28;20553;-63
2023/04/30 07:20:41;;;;;;;39.20;23.73;;;11.80;99.90;;;;;;5070501;28;20583;-64
2023/04/30 07:23:08;;;;;;;44.20;22.73;;;11.90;99.90;;;;;;5064671;28;20040;-63
2023/04/30 07:25:35;;;;;;;40.88;23.88;;;12.00;99.90;;;;;;5058065;28;20045;-62
2023/04/30 07:28:02;;;;;;;32.60;22.17;;;12.10;99.90;;;;;;5061927;28;20045;-62
2023/04/30 07:30:28;;;;;;;34.70;20.85;;;12.10;99.90;;;;;;5070377;28;20128;-62
2023/04/30 07:32:55;;;;;;;40.72;22.15;;;12.20;99.90;;;;;;5070849;28;20048;-63
2023/04/30 07:35:22;;;;;;;34.40;23.15;;;12.30;99.90;;;;;;5071653;28;20044;-63
2023/04/30 07:37:50;;;;;;;36.15;23.42;;;12.40;99.90;;;;;;5071142;28;20058;-64
2023/04/30 07:40:17;;;;;;;36.67;22.73;;;12.50;99.90;;;;;;5071519;28;20082;-63
2023/04/30 07:43:00;;;;;;;36.10;24.00;;;12.60;99.90;;;;;;5067071;28;20045;-63
2023/04/30 07:45:27;;;;;;;33.25;22.25;;;12.70;99.90;;;;;;5069523;28;20135;-62
2023/04/30 07:47:53;;;;;;;38.10;24.02;;;12.80;99.90;;;;;;4715558;28;10000284;-62
2023/04/30 07:50:20;;;;;;;38.15;24.60;;;12.90;99.90;;;;;;5065559;28;20746;-62
2023/04/30 07:52:49;;;;;;;38.58;24.65;;;13.00;99.90;;;;;;5052305;28;20199;-62
2023/04/30 07:55:16;;;;;;;40.75;25.85;;;13.10;99.90;;;;;;5061467;28;20036;-62
2023/04/30 07:57:43;;;;;;;38.30;26.60;;;13.20;99.90;;;;;;5055662;28;20122;-62
2023/04/30 08:00:10;;;;;;;39.38;23.10;;;13.30;99.90;;;;;;5058379;28;20551;-62
2023/04/30 08:02:37;;;;;;;36.75;23.27;;;13.30;99.90;;;;;;5066832;28;20071;-61
2023/04/30 08:05:04;;;;;;;36.53;22.90;;;13.40;99.90;;;;;;5058868;28;20044;-63
2023/04/30 08:07:31;;;;;;;38.50;24.02;;;13.50;99.90;;;;;;5054812;28;20044;-62
2023/04/30 08:09:58;;;;;;;37.10;23.65;;;13.60;99.90;;;;;;5054834;28;20463;-62
2023/04/30 08:12:25;;;;;;;47.83;22.42;;;13.60;99.90;;;;;;5054570;28;20055;-63
2023/04/30 08:15:00;;;;;;;36.38;23.33;;;13.70;99.90;;;;;;5038681;28;20059;-62
2023/04/30 08:17:27;;;;;;;38.78;25.05;;;13.80;99.90;;;;;;5064139;28;20175;-64
2023/04/30 08:19:54;;;;;;;37.72;23.42;;;13.80;99.90;;;;;;5065454;28;20398;-63
2023/04/30 08:22:21;;;;;;;36.30;23.60;;;13.90;99.90;;;;;;5063107;28;20057;-63
2023/04/30 08:24:48;;;;;;;36.70;23.58;;;13.90;99.90;;;;;;5049476;28;20078;-63
2023/04/30 08:27:15;;;;;;;35.65;23.10;;;14.00;99.90;;;;;;5065099;28;20135;-63
2023/04/30 08:29:42;;;;;;;36.17;22.65;;;14.00;99.90;;;;;;5066233;28;20071;-63
2023/04/30 08:32:09;;;;;;;35.80;21.95;;;14.10;99.90;;;;;;5064380;28;20060;-63
2023/04/30 08:34:36;;;;;;;32.47;20.13;;;14.30;99.90;;;;;;5065517;28;20064;-63
2023/04/30 08:37:02;;;;;;;29.10;20.05;;;14.30;99.90;;;;;;5062784;28;20302;-63
2023/04/30 08:39:29;;;;;;;32.65;23.85;;;14.40;99.90;;;;;;5065327;28;20320;-63
2023/04/30 08:41:56;;;;;;;35.10;21.75;;;14.50;99.90;;;;;;5068027;28;20040;-63
2023/04/30 08:44:23;;;;;;;35.80;20.48;;;14.50;99.90;;;;;;5066278;28;20407;-62
2023/04/30 08:46:53;;;;;;;27.83;21.45;;;14.60;99.90;;;;;;5053442;28;20056;-64
2023/04/30 08:49:21;;;;;;;36.13;21.77;;;14.60;99.90;;;;;;5068243;28;20080;-63
2023/04/30 08:51:50;;;;;;;29.90;21.25;;;14.70;99.90;;;;;;5068420;28;20076;-63
2023/04/30 08:54:17;;;;;;;31.20;21.63;;;14.70;99.90;;;;;;5058230;28;20475;-62
2023/04/30 08:56:45;;;;;;;34.30;21.80;;;14.80;99.90;;;;;;5059028;28;20099;-63
2023/04/30 08:59:12;;;;;;;25.77;17.92;;;14.90;99.90;;;;;;5057672;28;20119;-62
2023/04/30 09:01:39;;;;;;;28.23;18.13;;;14.90;99.90;;;;;;5047622;28;20045;-63
2023/04/30 09:04:06;;;;;;;27.05;17.75;;;15.00;99.90;;;;;;5068557;28;20048;-63
2023/04/30 09:06:33;;;;;;;22.77;16.33;;;15.00;99.90;;;;;;5066496;28;20055;-63
2023/04/30 09:09:14;;;;;;;28.05;17.42;;;15.00;99.90;;;;;;5066982;28;20114;-62
2023/04/30 09:11:41;;;;;;;22.83;15.77;;;15.00;99.90;;;;;;5065390;28;20075;-63
2023/04/30 09:14:08;;;;;;;19.92;14.10;;;15.10;99.90;;;;;;5067905;28;20049;-62
2023/04/30 09:16:48;;;;;;;22.98;14.85;;;15.10;99.90;;;;;;5067851;28;20131;-63
2023/04/30 09:19:28;;;;;;;23.35;16.23;;;15.20;99.90;;;;;;5067375;28;20055;-64
2023/04/30 09:21:55;;;;;;;20.70;15.07;;;15.30;99.90;;;;;;5067492;28;20088;-62
2023/04/30 09:24:22;;;;;;;20.17;14.35;;;15.40;99.90;;;;;;5065295;28;20045;-63
2023/04/30 09:26:49;;;;;;;22.23;14.13;;;15.50;99.90;;;;;;5058909;28;20080;-63
2023/04/30 09:29:16;;;;;;;23.45;12.82;;;15.60;99.90;;;;;;5057045;28;20072;-62
2023/04/30 09:31:45;;;;;;;17.83;12.50;;;15.80;99.90;;;;;;5049846;28;20049;-62
2023/04/30 09:34:13;;;;;;;19.40;12.02;;;15.80;99.90;;;;;;5063491;28;20067;-62
2023/04/30 09:36:55;;;;;;;18.15;12.35;;;15.90;99.90;;;;;;5066302;28;20527;-61
2023/04/30 09:39:22;;;;;;;15.52;11.27;;;16.00;99.90;;;;;;5066091;28;20051;-64
2023/04/30 09:41:50;;;;;;;17.42;10.75;;;16.10;99.90;;;;;;5068655;28;20654;-62
2023/04/30 09:44:30;;;;;;;17.08;10.70;;;16.20;99.90;;;;;;5071724;28;20044;-64
2023/04/30 09:47:00;;;;;;;17.25;11.23;;;16.60;99.90;;;;;;5067705;28;20049;-64
2023/04/30 09:49:27;;;;;;;20.42;12.40;;;16.90;99.90;;;;;;5067883;28;20048;-63
2023/04/30 09:51:55;;;;;;;18.67;12.38;;;17.10;99.90;;;;;;5066527;28;20076;-63
2023/04/30 09:54:27;;;;;;;22.20;13.57;;;17.10;99.90;;;;;;5058813;28;20056;-63
2023/04/30 09:56:56;;;;;;;16.15;11.82;;;17.30;99.90;;;;;;5067689;28;20166;-64
2023/04/30 09:59:31;;;;;;;15.32;11.57;;;17.50;99.90;;;;;;5065637;28;20080;-63
2023/04/30 10:02:00;;;;;;;15.60;11.02;;;17.70;99.90;;;;;;5064201;28;20622;-63
2023/04/30 10:04:32;;;;;;;16.15;10.50;;;17.80;99.90;;;;;;5061810;28;20049;-63
2023/04/30 10:07:01;;;;;;;13.13;8.90;;;18.00;99.90;;;;;;5058985;28;20551;-63
2023/04/30 10:09:31;;;;;;;16.55;10.55;;;18.10;99.90;;;;;;5058587;28;20131;-63
2023/04/30 10:11:58;;;;;;;12.70;9.98;;;18.20;99.90;;;;;;5067926;28;20159;-63
2023/04/30 10:14:25;;;;;;;17.63;10.82;;;18.20;99.90;;;;;;5050040;28;20140;-62
2023/04/30 10:17:18;;;;;;;14.02;9.18;;;18.30;99.90;;;;;;5050705;28;20488;-63
2023/04/30 10:19:47;;;;;;;18.25;11.00;;;18.40;99.90;;;;;;5063374;28;20060;-63
2023/04/30 10:22:14;;;;;;;17.30;12.13;;;18.60;99.90;;;;;;5030308;28;20759;-63
2023/04/30 10:24:41;;;;;;;19.50;11.48;;;18.70;99.90;;;;;;5058363;28;20053;-63
2023/04/30 10:27:08;;;;;;;15.32;11.98;;;18.90;99.90;;;;;;5061378;28;20056;-62
2023/04/30 10:29:35;;;;;;;15.18;10.55;;;19.10;99.90;;;;;;5060216;28;20090;-64
2023/04/30 10:32:04;;;;;;;18.10;12.10;;;19.30;99.90;;;;;;5043655;28;20529;-62
2023/04/30 10:34:34;;;;;;;18.13;13.73;;;19.30;99.90;;;;;;5045449;28;20057;-63
2023/04/30 10:37:10;;;;;;;17.52;13.23;;;19.00;99.90;;;;;;5066945;28;20044;-61
2023/04/30 10:39:37;;;;;;;15.98;10.52;;;18.70;99.90;;;;;;5066637;28;20086;-62
2023/04/30 10:42:05;;;;;;;18.92;12.98;;;18.60;99.90;;;;;;5065136;28;20050;-63
2023/04/30 10:44:33;;;;;;;20.30;12.32;;;18.40;99.90;;;;;;5055994;28;20098;-63
2023/04/30 10:47:01;;;;;;;18.77;12.18;;;18.20;99.90;;;;;;5059044;28;20053;-62
2023/04/30 10:49:28;;;;;;;15.20;10.98;;;18.10;99.90;;;;;;5061463;28;20055;-64
2023/04/30 10:51:59;;;;;;;15.07;10.30;;;18.10;99.90;;;;;;5062604;28;20135;-63
2023/04/30 10:54:34;;;;;;;13.85;9.68;;;18.20;99.90;;;;;;5061143;28;20515;-63
2023/04/30 10:57:18;;;;;;;12.40;8.80;;;18.30;99.90;;;;;;5061991;28;20131;-63
2023/04/30 10:59:52;;;;;;;10.35;6.63;;;18.30;99.90;;;;;;5056991;28;20136;-63
2023/04/30 11:02:20;;;;;;;9.32;6.32;;;18.50;99.90;;;;;;5060678;28;20048;-62
2023/04/30 11:05:08;;;;;;;9.65;6.13;;;18.50;99.90;;;;;;5056995;28;20049;-63
2023/04/30 11:07:35;;;;;;;9.23;5.65;;;18.60;99.90;;;;;;5054382;28;20509;-63
2023/04/30 11:10:02;;;;;;;8.82;5.72;;;18.60;99.90;;;;;;5059884;28;20114;-63
2023/04/30 11:12:29;;;;;;;11.70;6.75;;;18.60;99.90;;;;;;5059060;28;20056;-62
2023/04/30 11:15:06;;;;;;;9.10;5.97;;;18.60;99.90;;;;;;5060877;28;20554;-64
2023/04/30 11:17:33;;;;;;;10.77;6.22;;;18.70;99.70;;;;;;5058369;28;20164;-63
2023/04/30 11:20:03;;;;;;;8.57;6.43;;;18.80;99.90;;;;;;5061168;28;20049;-62
2023/04/30 11:22:34;;;;;;;10.27;6.10;;;18.70;99.90;;;;;;5063525;28;20183;-63
2023/04/30 11:25:08;;;;;;;8.15;6.00;;;18.80;99.90;;;;;;5060646;28;20044;-62
2023/04/30 11:27:43;;;;;;;11.90;6.28;;;18.90;99.90;;;;;;5063609;28;20049;-63
2023/04/30 11:30:12;;;;;;;9.77;6.45;;;18.90;98.80;;;;;;5059678;28;20052;-63
2023/04/30 11:32:39;;;;;;;8.23;5.35;;;18.90;99.90;;;;;;5058090;28;20100;-61
2023/04/30 11:35:06;;;;;;;9.98;7.60;;;18.90;99.90;;;;;;5061617;28;20048;-62
2023/04/30 11:37:34;;;;;;;12.80;7.75;;;18.90;99.90;;;;;;5057861;28;20080;-63
2023/04/30 11:40:02;;;;;;;12.85;7.57;;;18.80;99.90;;;;;;5063693;28;20057;-63
2023/04/30 11:42:30;;;;;;;12.60;6.93;;;18.80;99.90;;;;;;5061712;28;20056;-63
2023/04/30 11:45:07;;;;;;;9.73;6.85;;;18.80;99.90;;;;;;5063974;28;20072;-62
2023/04/30 11:47:44;;;;;;;10.45;7.00;;;18.70;99.90;;;;;;5061605;28;20680;-63
2023/04/30 11:50:26;;;;;;;11.50;7.35;;;18.80;99.90;;;;;;5056856;28;20076;-62
2023/04/30 11:52:53;;;;;;;10.18;7.25;;;18.80;99.70;;;;;;5064297;28;20110;-63
2023/04/30 11:55:21;;;;;;;13.00;6.90;;;18.70;99.90;;;;;;5064712;28;20060;-62
2023/04/30 11:57:49;;;;;;;11.38;7.13;;;18.70;99.90;;;;;;5068198;28;20102;-62
2023/04/30 12:00:18;;;;;;;11.68;6.60;;;18.80;99.90;;;;;;5063482;28;20086;-62
2023/04/30 12:02:45;;;;;;;8.55;5.50;;;19.00;99.90;;;;;;5056001;28;20044;-62
2023/04/30 12:05:20;;;;;;;9.15;5.70;;;18.90;99.90;;;;;;5057837;28;20131;-61
2023/04/30 12:07:48;;;;;;;7.72;5.40;;;19.00;98.30;;;;;;5058941;28;20044;-63
2023/04/30 12:10:15;;;;;;;17.17;7.10;;;19.00;99.20;;;;;;5058097;28;20574;-63
2023/04/30 12:12:42;;;;;;;9.32;5.40;;;18.90;99.20;;;;;;5058397;28;20054;-63
2023/04/30 12:15:13;;;;;;;8.50;4.65;;;19.00;98.80;;;;;;5070194;28;20048;-63
2023/04/30 12:17:40;;;;;;;9.52;5.63;;;18.90;97.40;;;;;;5070136;28;20048;-62
2023/04/30 12:20:08;;;;;;;11.90;7.20;;;19.00;98.50;;;;;;5065856;28;20575;-63
2023/04/30 12:22:36;;;;;;;9.80;6.00;;;19.00;98.20;;;;;;5068802;28;20044;-62
2023/04/30 12:25:13;;;;;;;10.13;5.65;;;19.00;98.70;;;;;;5070341;28;20143;-62
2023/04/30 12:27:50;;;;;;;8.45;5.80;;;19.00;98.10;;;;;;5058653;28;20522;-62
2023/04/30 12:30:22;;;;;;;14.00;5.90;;;19.10;98.70;;;;;;5068860;28;20051;-64
2023/04/30 12:32:50;;;;;;;8.18;5.63;;;19.20;98.30;;;;;;5069725;28;20365;-62
2023/04/30 12:35:19;;;;;;;8.20;5.63;;;19.30;97.60;;;;;;5068709;28;20052;-63
2023/04/30 12:37:50;;;;;;;10.55;6.53;;;19.20;95.80;;;;;;5067828;28;20446;-62
2023/04/30 12:40:18;;;;;;;9.35;5.35;;;19.00;96.90;;;;;;5064219;28;20044;-62